sensor_id;sensor_type;location;lat;lon;timestamp;pressure;altitude;pressure_sealevel;temperature;humidity
70468;BME280;57934;51.532;7.684;2023-04-04T00:00:08;101705.72;;;0.40;75.87
70468;BME280;57934;51.532;7.684;2023-04-04T00:02:35;101705.81;;;0.39;75.23
70468;BME280;57934;51.532;7.684;2023-04-04T00:05:02;101707.47;;;0.40;75.51
70468;BME280;57934;51.532;7.684;2023-04-04T00:07:28;101707.66;;;0.37;75.92
70468;BME280;57934;51.532;7.684;2023-04-04T00:09:54;101711.91;;;0.38;76.03
70468;BME280;57934;51.532;7.684;2023-04-04T00:12:20;101709.41;;;0.36;75.72
70468;BME280;57934;51.532;7.684;2023-04-04T00:14:47;101701.63;;;0.36;75.72
70468;BME280;57934;51.532;7.684;2023-04-04T00:17:13;101706.19;;;0.33;75.32
70468;BME280;57934;51.532;7.684;2023-04-04T00:19:39;101704.69;;;0.29;75.33
70468;BME280;57934;51.532;7.684;2023-04-04T00:22:06;101706.47;;;0.28;75.86
70468;BME280;57934;51.532;7.684;2023-04-04T00:24:32;101707.47;;;0.26;75.95
70468;BME280;57934;51.532;7.684;2023-04-04T00:26:58;101706.72;;;0.23;75.69
70468;BME280;57934;51.532;7.684;2023-04-04T00:29:24;101707.81;;;0.19;75.89
70468;BME280;57934;51.532;7.684;2023-04-04T00:31:50;101699.09;;;0.20;76.37
70468;BME280;57934;51.532;7.684;2023-04-04T00:34:16;101694.09;;;0.17;76.30
70468;BME280;57934;51.532;7.684;2023-04-04T00:36:42;101696.03;;;0.14;77.09
70468;BME280;57934;51.532;7.684;2023-04-04T00:39:09;101700.56;;;0.10;77.74
70468;BME280;57934;51.532;7.684;2023-04-04T00:41:35;101702.50;;;0.07;77.82
70468;BME280;57934;51.532;7.684;2023-04-04T00:44:01;101699.28;;;0.03;78.25
70468;BME280;57934;51.532;7.684;2023-04-04T00:46:27;101700.84;;;0.06;77.65
70468;BME280;57934;51.532;7.684;2023-04-04T00:48:54;101689.66;;;0.05;78.25
70468;BME280;57934;51.532;7.684;2023-04-04T00:51:21;101696.25;;;0.11;78.23
70468;BME280;57934;51.532;7.684;2023-04-04T00:53:47;101696.59;;;0.05;78.47
70468;BME280;57934;51.532;7.684;2023-04-04T00:56:15;101697.59;;;0.02;78.36
70468;BME280;57934;51.532;7.684;2023-04-04T00:58:42;101712.44;;;0.00;77.70
70468;BME280;57934;51.532;7.684;2023-04-04T01:01:09;101697.97;;;-0.04;77.43
70468;BME280;57934;51.532;7.684;2023-04-04T01:03:38;101701.59;;;-0.07;77.79
70468;BME280;57934;51.532;7.684;2023-04-04T01:06:07;101699.00;;;-0.07;77.74
70468;BME280;57934;51.532;7.684;2023-04-04T01:08:35;101700.00;;;-0.09;77.42
70468;BME280;57934;51.532;7.684;2023-04-04T01:11:03;101694.81;;;-0.09;77.72
70468;BME280;57934;51.532;7.684;2023-04-04T01:13:31;101707.94;;;-0.12;77.86
70468;BME280;57934;51.532;7.684;2023-04-04T01:15:57;101698.53;;;-0.13;77.31
70468;BME280;57934;51.532;7.684;2023-04-04T01:18:24;101699.41;;;-0.14;78.30
70468;BME280;57934;51.532;7.684;2023-04-04T01:21:04;101694.44;;;-0.17;78.99
70468;BME280;57934;51.532;7.684;2023-04-04T01:23:46;101689.25;;;-0.17;78.99
70468;BME280;57934;51.532;7.684;2023-04-04T01:26:15;101687.50;;;-0.17;78.41
70468;BME280;57934;51.532;7.684;2023-04-04T01:28:41;101700.34;;;-0.15;78.58
70468;BME280;57934;51.532;7.684;2023-04-04T01:31:13;101696.09;;;-0.16;78.63
70468;BME280;57934;51.532;7.684;2023-04-04T01:33:45;101690.91;;;-0.16;78.97
70468;BME280;57934;51.532;7.684;2023-04-04T01:41:47;101690.25;;;-0.20;78.92
70468;BME280;57934;51.532;7.684;2023-04-04T01:44:16;101683.59;;;-0.24;78.63
70468;BME280;57934;51.532;7.684;2023-04-04T01:46:44;101683.66;;;-0.26;78.73
70468;BME280;57934;51.532;7.684;2023-04-04T01:49:11;101682.94;;;-0.28;78.24
70468;BME280;57934;51.532;7.684;2023-04-04T01:51:38;101684.75;;;-0.30;77.93
70468;BME280;57934;51.532;7.684;2023-04-04T01:54:05;101679.59;;;-0.30;78.21
70468;BME280;57934;51.532;7.684;2023-04-04T01:56:31;101680.59;;;-0.32;78.24
70468;BME280;57934;51.532;7.684;2023-04-04T01:58:57;101673.91;;;-0.36;78.19
70468;BME280;57934;51.532;7.684;2023-04-04T02:01:23;101679.94;;;-0.36;78.09
70468;BME280;57934;51.532;7.684;2023-04-04T02:03:51;101669.66;;;-0.37;78.45
70468;BME280;57934;51.532;7.684;2023-04-04T02:06:17;101671.03;;;-0.32;78.48
70468;BME280;57934;51.532;7.684;2023-04-04T02:08:44;101664.13;;;-0.31;78.13
70468;BME280;57934;51.532;7.684;2023-04-04T02:11:10;101663.28;;;-0.32;78.28
70468;BME280;57934;51.532;7.684;2023-04-04T02:13:37;101659.84;;;-0.32;78.98
70468;BME280;57934;51.532;7.684;2023-04-04T02:16:07;101657.44;;;-0.35;78.93
70468;BME280;57934;51.532;7.684;2023-04-04T02:18:33;101656.72;;;-0.37;79.49
70468;BME280;57934;51.532;7.684;2023-04-04T02:20:59;101657.19;;;-0.31;78.80
70468;BME280;57934;51.532;7.684;2023-04-04T02:23:25;101659.69;;;-0.29;79.36
70468;BME280;57934;51.532;7.684;2023-04-04T02:25:52;101659.13;;;-0.34;78.92
70468;BME280;57934;51.532;7.684;2023-04-04T02:28:19;101657.53;;;-0.37;79.58
70468;BME280;57934;51.532;7.684;2023-04-04T02:30:47;101665.31;;;-0.37;79.60
70468;BME280;57934;51.532;7.684;2023-04-04T02:33:13;101665.00;;;-0.46;79.28
70468;BME280;57934;51.532;7.684;2023-04-04T02:35:39;101662.69;;;-0.51;78.98
70468;BME280;57934;51.532;7.684;2023-04-04T02:38:05;101675.47;;;-0.48;80.30
70468;BME280;57934;51.532;7.684;2023-04-04T02:40:40;101665.25;;;-0.51;79.87
70468;BME280;57934;51.532;7.684;2023-04-04T02:43:07;101666.19;;;-0.52;80.04
70468;BME280;57934;51.532;7.684;2023-04-04T02:45:36;101669.13;;;-0.58;79.08
70468;BME280;57934;51.532;7.684;2023-04-04T02:48:13;101662.47;;;-0.62;79.68
70468;BME280;57934;51.532;7.684;2023-04-04T02:50:45;101657.09;;;-0.59;79.51
70468;BME280;57934;51.532;7.684;2023-04-04T02:53:13;101652.94;;;-0.62;79.62
70468;BME280;57934;51.532;7.684;2023-04-04T02:55:39;101655.53;;;-0.62;80.35
70468;BME280;57934;51.532;7.684;2023-04-04T02:58:05;101654.53;;;-0.59;79.68
70468;BME280;57934;51.532;7.684;2023-04-04T03:00:31;101654.16;;;-0.53;79.85
70468;BME280;57934;51.532;7.684;2023-04-04T03:02:58;101651.47;;;-0.52;79.60
70468;BME280;57934;51.532;7.684;2023-04-04T03:05:33;101656.06;;;-0.57;79.10
70468;BME280;57934;51.532;7.684;2023-04-04T03:08:00;101655.69;;;-0.65;79.81
70468;BME280;57934;51.532;7.684;2023-04-04T03:10:28;101658.53;;;-0.69;79.90
70468;BME280;57934;51.532;7.684;2023-04-04T03:12:58;101654.84;;;-0.65;80.23
70468;BME280;57934;51.532;7.684;2023-04-04T03:15:27;101655.03;;;-0.68;79.98
70468;BME280;57934;51.532;7.684;2023-04-04T03:17:54;101659.66;;;-0.74;79.86
70468;BME280;57934;51.532;7.684;2023-04-04T03:20:24;101660.63;;;-0.76;80.48
70468;BME280;57934;51.532;7.684;2023-04-04T03:22:51;101658.13;;;-0.78;80.43
70468;BME280;57934;51.532;7.684;2023-04-04T03:25:17;101652.03;;;-0.77;80.76
70468;BME280;57934;51.532;7.684;2023-04-04T03:27:43;101651.28;;;-0.79;80.91
70468;BME280;57934;51.532;7.684;2023-04-04T03:30:12;101645.38;;;-0.81;81.06
70468;BME280;57934;51.532;7.684;2023-04-04T03:32:39;101646.28;;;-0.82;80.77
70468;BME280;57934;51.532;7.684;2023-04-04T03:35:06;101642.94;;;-0.84;80.43
70468;BME280;57934;51.532;7.684;2023-04-04T03:37:33;101636.25;;;-0.88;80.97
70468;BME280;57934;51.532;7.684;2023-04-04T03:40:00;101635.34;;;-0.87;81.28
70468;BME280;57934;51.532;7.684;2023-04-04T03:42:32;101628.47;;;-0.88;81.11
70468;BME280;57934;51.532;7.684;2023-04-04T03:44:59;101631.16;;;-0.89;81.52
70468;BME280;57934;51.532;7.684;2023-04-04T03:47:30;101627.00;;;-0.92;81.90
70468;BME280;57934;51.532;7.684;2023-04-04T03:49:57;101629.75;;;-0.95;82.29
70468;BME280;57934;51.532;7.684;2023-04-04T03:52:24;101619.59;;;-0.98;82.25
70468;BME280;57934;51.532;7.684;2023-04-04T03:54:51;101624.94;;;-1.01;82.20
70468;BME280;57934;51.532;7.684;2023-04-04T03:57:17;101624.84;;;-1.00;82.49
70468;BME280;57934;51.532;7.684;2023-04-04T03:59:43;101625.84;;;-1.02;82.32
70468;BME280;57934;51.532;7.684;2023-04-04T04:02:09;101624.09;;;-1.02;81.63
70468;BME280;57934;51.532;7.684;2023-04-04T04:04:35;101615.69;;;-1.05;81.21
70468;BME280;57934;51.532;7.684;2023-04-04T04:07:01;101616.69;;;-1.08;81.90
70468;BME280;57934;51.532;7.684;2023-04-04T04:09:28;101614.81;;;-1.06;81.96
70468;BME280;57934;51.532;7.684;2023-04-04T04:12:00;101608.25;;;-1.11;82.46
70468;BME280;57934;51.532;7.684;2023-04-04T04:14:27;101612.59;;;-1.12;81.79
70468;BME280;57934;51.532;7.684;2023-04-04T04:16:53;101610.06;;;-1.13;81.79
70468;BME280;57934;51.532;7.684;2023-04-04T04:19:22;101611.00;;;-1.14;81.34
70468;BME280;57934;51.532;7.684;2023-04-04T04:21:48;101620.25;;;-1.10;81.73
70468;BME280;57934;51.532;7.684;2023-04-04T04:24:14;101616.91;;;-1.12;82.08
70468;BME280;57934;51.532;7.684;2023-04-04T04:26:40;101618.94;;;-1.17;81.86
70468;BME280;57934;51.532;7.684;2023-04-04T04:29:08;101617.44;;;-1.22;81.91
70468;BME280;57934;51.532;7.684;2023-04-04T04:31:34;101619.84;;;-1.18;81.89
70468;BME280;57934;51.532;7.684;2023-04-04T04:34:04;101616.59;;;-1.22;81.42
70468;BME280;57934;51.532;7.684;2023-04-04T04:36:30;101619.25;;;-1.24;81.76
70468;BME280;57934;51.532;7.684;2023-04-04T04:39:19;101616.66;;;-1.24;82.10
70468;BME280;57934;51.532;7.684;2023-04-04T04:42:05;101619.09;;;-1.21;81.89
70468;BME280;57934;51.532;7.684;2023-04-04T04:44:32;101617.75;;;-1.28;81.74
70468;BME280;57934;51.532;7.684;2023-04-04T04:46:59;101616.44;;;-1.35;82.20
70468;BME280;57934;51.532;7.684;2023-04-04T04:49:25;101614.81;;;-1.37;82.30
70468;BME280;57934;51.532;7.684;2023-04-04T04:51:52;101612.19;;;-1.36;81.99
70468;BME280;57934;51.532;7.684;2023-04-04T04:54:20;101609.50;;;-1.34;82.47
70468;BME280;57934;51.532;7.684;2023-04-04T04:56:51;101606.00;;;-1.33;83.14
70468;BME280;57934;51.532;7.684;2023-04-04T04:59:18;101620.59;;;-1.32;82.86
70468;BME280;57934;51.532;7.684;2023-04-04T05:01:45;101620.59;;;-1.32;83.20
70468;BME280;57934;51.532;7.684;2023-04-04T05:04:13;101616.16;;;-1.30;82.47
70468;BME280;57934;51.532;7.684;2023-04-04T05:06:53;101615.25;;;-1.29;82.33
70468;BME280;57934;51.532;7.684;2023-04-04T05:09:20;101616.66;;;-1.24;82.89
70468;BME280;57934;51.532;7.684;2023-04-04T05:11:46;101620.75;;;-1.20;82.81
70468;BME280;57934;51.532;7.684;2023-04-04T05:14:13;101628.03;;;-1.10;83.11
70468;BME280;57934;51.532;7.684;2023-04-04T05:16:48;101637.88;;;-1.01;82.46
70468;BME280;57934;51.532;7.684;2023-04-04T05:19:14;101625.66;;;-0.99;82.72
70468;BME280;57934;51.532;7.684;2023-04-04T05:21:46;101629.03;;;-0.97;82.41
70468;BME280;57934;51.532;7.684;2023-04-04T05:24:23;101632.34;;;-0.95;82.10
70468;BME280;57934;51.532;7.684;2023-04-04T05:26:49;101633.09;;;-0.93;81.78
70468;BME280;57934;51.532;7.684;2023-04-04T05:29:16;101625.16;;;-0.90;81.80
70468;BME280;57934;51.532;7.684;2023-04-04T05:31:45;101635.25;;;-0.85;81.04
70468;BME280;57934;51.532;7.684;2023-04-04T05:34:17;101639.09;;;-0.77;81.56
70468;BME280;57934;51.532;7.684;2023-04-04T05:36:43;101636.81;;;-0.67;81.00
70468;BME280;57934;51.532;7.684;2023-04-04T05:39:10;101635.53;;;-0.60;80.99
70468;BME280;57934;51.532;7.684;2023-04-04T05:41:43;101636.88;;;-0.53;81.14
70468;BME280;57934;51.532;7.684;2023-04-04T05:44:14;101638.25;;;-0.47;81.38
70468;BME280;57934;51.532;7.684;2023-04-04T05:46:44;101638.47;;;-0.36;80.65
70468;BME280;57934;51.532;7.684;2023-04-04T05:49:10;101632.75;;;-0.27;80.54
70468;BME280;57934;51.532;7.684;2023-04-04T05:51:41;101646.28;;;-0.21;79.80
70468;BME280;57934;51.532;7.684;2023-04-04T05:54:13;101646.09;;;-0.18;79.50
70468;BME280;57934;51.532;7.684;2023-04-04T05:56:39;101651.38;;;-0.20;79.70
70468;BME280;57934;51.532;7.684;2023-04-04T05:59:13;101659.50;;;-0.26;79.38
70468;BME280;57934;51.532;7.684;2023-04-04T06:01:50;101667.38;;;-0.28;78.89
70468;BME280;57934;51.532;7.684;2023-04-04T06:04:17;101659.50;;;-0.26;79.26
70468;BME280;57934;51.532;7.684;2023-04-04T06:06:44;101659.34;;;-0.23;79.19
70468;BME280;57934;51.532;7.684;2023-04-04T06:09:11;101659.22;;;-0.21;78.78
70468;BME280;57934;51.532;7.684;2023-04-04T06:11:37;101655.34;;;-0.14;79.01
70468;BME280;57934;51.532;7.684;2023-04-04T06:14:07;101661.19;;;-0.11;77.90
70468;BME280;57934;51.532;7.684;2023-04-04T06:16:34;101658.91;;;-0.01;78.08
70468;BME280;57934;51.532;7.684;2023-04-04T06:19:01;101662.44;;;0.12;77.83
70468;BME280;57934;51.532;7.684;2023-04-04T06:21:27;101667.16;;;0.34;76.80
70468;BME280;57934;51.532;7.684;2023-04-04T06:23:54;101665.97;;;0.54;76.37
70468;BME280;57934;51.532;7.684;2023-04-04T06:26:20;101673.16;;;0.78;75.99
70468;BME280;57934;51.532;7.684;2023-04-04T06:28:48;101677.03;;;0.99;74.62
70468;BME280;57934;51.532;7.684;2023-04-04T06:31:16;101680.69;;;1.09;74.16
70468;BME280;57934;51.532;7.684;2023-04-04T06:33:44;101681.97;;;1.16;74.33
70468;BME280;57934;51.532;7.684;2023-04-04T06:36:11;101679.41;;;1.29;73.75
70468;BME280;57934;51.532;7.684;2023-04-04T06:38:37;101680.94;;;1.46;73.18
70468;BME280;57934;51.532;7.684;2023-04-04T06:41:11;101690.31;;;1.61;73.51
70468;BME280;57934;51.532;7.684;2023-04-04T06:43:37;101693.66;;;1.63;73.41
70468;BME280;57934;51.532;7.684;2023-04-04T06:46:05;101695.13;;;1.67;74.14
70468;BME280;57934;51.532;7.684;2023-04-04T06:48:31;101697.91;;;1.64;74.06
70468;BME280;57934;51.532;7.684;2023-04-04T06:50:58;101699.81;;;1.62;74.23
70468;BME280;57934;51.532;7.684;2023-04-04T06:53:26;101702.41;;;1.62;74.64
70468;BME280;57934;51.532;7.684;2023-04-04T06:55:52;101699.69;;;1.64;74.79
70468;BME280;57934;51.532;7.684;2023-04-04T06:58:18;101700.63;;;1.63;74.96
70468;BME280;57934;51.532;7.684;2023-04-04T07:08:15;101700.94;;;1.58;71.03
70468;BME280;57934;51.532;7.684;2023-04-04T07:10:43;101700.81;;;1.60;70.73
70468;BME280;57934;51.532;7.684;2023-04-04T07:13:12;101699.16;;;1.59;70.34
70468;BME280;57934;51.532;7.684;2023-04-04T07:15:44;101701.84;;;1.57;70.42
70468;BME280;57934;51.532;7.684;2023-04-04T07:18:13;101693.66;;;1.63;70.13
70468;BME280;57934;51.532;7.684;2023-04-04T07:20:41;101691.63;;;1.69;70.54
70468;BME280;57934;51.532;7.684;2023-04-04T07:23:10;101693.16;;;1.71;70.16
70468;BME280;57934;51.532;7.684;2023-04-04T07:25:37;101694.84;;;1.72;68.78
70468;BME280;57934;51.532;7.684;2023-04-04T07:28:04;101696.09;;;1.79;67.90
70468;BME280;57934;51.532;7.684;2023-04-04T07:30:30;101689.75;;;1.96;67.33
70468;BME280;57934;51.532;7.684;2023-04-04T07:33:00;101690.41;;;2.12;67.75
70468;BME280;57934;51.532;7.684;2023-04-04T07:35:27;101689.56;;;2.37;67.56
70468;BME280;57934;51.532;7.684;2023-04-04T07:37:54;101684.91;;;2.43;66.92
70468;BME280;57934;51.532;7.684;2023-04-04T07:40:20;101685.41;;;2.48;65.05
70468;BME280;57934;51.532;7.684;2023-04-04T07:42:47;101695.25;;;2.68;64.83
70468;BME280;57934;51.532;7.684;2023-04-04T07:45:16;101691.75;;;2.93;64.43
70468;BME280;57934;51.532;7.684;2023-04-04T07:47:43;101691.97;;;3.27;64.11
70468;BME280;57934;51.532;7.684;2023-04-04T07:50:11;101686.13;;;3.47;62.07
70468;BME280;57934;51.532;7.684;2023-04-04T07:52:37;101685.22;;;3.95;60.89
70468;BME280;57934;51.532;7.684;2023-04-04T07:55:03;101682.91;;;4.48;59.72
70468;BME280;57934;51.532;7.684;2023-04-04T07:57:32;101675.84;;;4.93;57.70
70468;BME280;57934;51.532;7.684;2023-04-04T07:59:58;101680.00;;;5.39;55.74
70468;BME280;57934;51.532;7.684;2023-04-04T08:02:25;101680.00;;;5.92;53.76
70468;BME280;57934;51.532;7.684;2023-04-04T08:04:51;101679.16;;;6.74;51.24
70468;BME280;57934;51.532;7.684;2023-04-04T08:07:20;101676.06;;;7.58;49.55
70468;BME280;57934;51.532;7.684;2023-04-04T08:09:46;101672.25;;;8.83;46.22
70468;BME280;57934;51.532;7.684;2023-04-04T08:12:12;101668.16;;;10.22;43.71
70468;BME280;57934;51.532;7.684;2023-04-04T08:14:39;101659.09;;;10.59;42.45
70468;BME280;57934;51.532;7.684;2023-04-04T08:17:06;101671.50;;;11.66;39.28
70468;BME280;57934;51.532;7.684;2023-04-04T08:19:33;101667.19;;;12.06;37.53
70468;BME280;57934;51.532;7.684;2023-04-04T08:21:59;101667.19;;;12.06;36.99
70468;BME280;57934;51.532;7.684;2023-04-04T08:24:25;101674.13;;;11.50;36.99
70468;BME280;57934;51.532;7.684;2023-04-04T08:26:51;101666.06;;;12.48;35.96
70468;BME280;57934;51.532;7.684;2023-04-04T08:29:17;101668.50;;;13.43;33.84
70468;BME280;57934;51.532;7.684;2023-04-04T08:31:43;101663.59;;;13.78;31.63
70468;BME280;57934;51.532;7.684;2023-04-04T08:34:09;101668.03;;;13.63;31.23
70468;BME280;57934;51.532;7.684;2023-04-04T08:36:36;101662.22;;;14.86;30.60
70468;BME280;57934;51.532;7.684;2023-04-04T08:39:02;101662.72;;;14.15;30.35
70468;BME280;57934;51.532;7.684;2023-04-04T08:41:29;101659.00;;;15.12;29.63
70468;BME280;57934;51.532;7.684;2023-04-04T08:44:00;101664.25;;;15.26;29.00
70468;BME280;57934;51.532;7.684;2023-04-04T08:46:28;101656.16;;;16.12;28.71
70468;BME280;57934;51.532;7.684;2023-04-04T08:48:55;101669.13;;;14.36;29.29
70468;BME280;57934;51.532;7.684;2023-04-04T08:51:24;101665.63;;;13.91;29.99
70468;BME280;57934;51.532;7.684;2023-04-04T08:53:54;101665.34;;;14.60;29.78
70468;BME280;57934;51.532;7.684;2023-04-04T08:56:21;101669.25;;;15.15;28.71
70468;BME280;57934;51.532;7.684;2023-04-04T08:58:48;101682.19;;;14.22;29.59
70468;BME280;57934;51.532;7.684;2023-04-04T09:01:14;101671.03;;;14.71;30.26
70468;BME280;57934;51.532;7.684;2023-04-04T09:03:41;101670.34;;;13.80;30.49
70468;BME280;57934;51.532;7.684;2023-04-04T09:06:09;101667.50;;;13.82;30.83
70468;BME280;57934;51.532;7.684;2023-04-04T09:08:35;101666.59;;;13.90;31.14
70468;BME280;57934;51.532;7.684;2023-04-04T09:11:02;101668.19;;;14.73;30.00
70468;BME280;57934;51.532;7.684;2023-04-04T09:13:28;101672.78;;;11.30;33.38
70468;BME280;57934;51.532;7.684;2023-04-04T09:15:55;101669.84;;;11.98;34.14
70468;BME280;57934;51.532;7.684;2023-04-04T09:18:22;101661.72;;;13.18;33.38
70468;BME280;57934;51.532;7.684;2023-04-04T09:20:48;101663.69;;;12.14;33.57
70468;BME280;57934;51.532;7.684;2023-04-04T09:23:16;101661.59;;;11.77;34.40
70468;BME280;57934;51.532;7.684;2023-04-04T09:25:53;101663.84;;;12.29;33.85
70468;BME280;57934;51.532;7.684;2023-04-04T09:28:21;101667.41;;;13.38;32.28
70468;BME280;57934;51.532;7.684;2023-04-04T09:30:48;101659.22;;;13.16;31.81
70468;BME280;57934;51.532;7.684;2023-04-04T09:33:15;101661.22;;;12.91;32.10
70468;BME280;57934;51.532;7.684;2023-04-04T09:35:55;101662.06;;;12.05;33.58
70468;BME280;57934;51.532;7.684;2023-04-04T09:38:40;101667.50;;;11.79;34.15
70468;BME280;57934;51.532;7.684;2023-04-04T09:41:15;101656.38;;;12.95;32.55
70468;BME280;57934;51.532;7.684;2023-04-04T09:43:44;101660.84;;;13.86;31.64
70468;BME280;57934;51.532;7.684;2023-04-04T09:46:11;101654.31;;;15.14;30.11
70468;BME280;57934;51.532;7.684;2023-04-04T09:48:37;101645.50;;;14.55;30.72
70468;BME280;57934;51.532;7.684;2023-04-04T09:51:04;101644.44;;;13.30;31.67
70468;BME280;57934;51.532;7.684;2023-04-04T09:53:34;101658.56;;;13.45;32.38
70468;BME280;57934;51.532;7.684;2023-04-04T09:56:02;101661.41;;;13.12;31.93
70468;BME280;57934;51.532;7.684;2023-04-04T09:58:29;101651.78;;;13.80;32.11
70468;BME280;57934;51.532;7.684;2023-04-04T10:01:02;101660.44;;;12.51;32.42
70468;BME280;57934;51.532;7.684;2023-04-04T10:03:51;101652.78;;;12.56;32.51
70468;BME280;57934;51.532;7.684;2023-04-04T10:06:38;101642.78;;;12.75;32.77
70468;BME280;57934;51.532;7.684;2023-04-04T10:09:14;101646.81;;;13.63;32.34
70468;BME280;57934;51.532;7.684;2023-04-04T10:12:13;101643.31;;;15.17;31.15
70468;BME280;57934;51.532;7.684;2023-04-04T10:14:39;101634.19;;;15.26;30.20
70468;BME280;57934;51.532;7.684;2023-04-04T10:17:12;101627.91;;;16.11;29.18
70468;BME280;57934;51.532;7.684;2023-04-04T10:19:39;101634.81;;;15.49;28.96
70468;BME280;57934;51.532;7.684;2023-04-04T10:22:06;101630.31;;;14.35;30.01
70468;BME280;57934;51.532;7.684;2023-04-04T10:24:33;101634.63;;;13.53;30.95
70468;BME280;57934;51.532;7.684;2023-04-04T10:27:00;101633.75;;;12.92;32.20
70468;BME280;57934;51.532;7.684;2023-04-04T10:29:26;101631.66;;;13.71;31.44
70468;BME280;57934;51.532;7.684;2023-04-04T10:31:58;101626.72;;;15.36;28.82
70468;BME280;57934;51.532;7.684;2023-04-04T10:37:08;101618.56;;;15.38;29.77
70468;BME280;57934;51.532;7.684;2023-04-04T10:39:50;101612.63;;;16.88;28.44
70468;BME280;57934;51.532;7.684;2023-04-04T10:42:18;101606.94;;;18.42;25.82
70468;BME280;57934;51.532;7.684;2023-04-04T10:44:44;101613.25;;;18.03;25.93
70468;BME280;57934;51.532;7.684;2023-04-04T10:47:20;101598.84;;;18.04;25.90
70468;BME280;57934;51.532;7.684;2023-04-04T10:49:47;101596.31;;;18.74;24.96
70468;BME280;57934;51.532;7.684;2023-04-04T10:52:22;101602.41;;;17.91;26.16
70468;BME280;57934;51.532;7.684;2023-04-04T10:54:51;101596.31;;;16.50;27.42
70468;BME280;57934;51.532;7.684;2023-04-04T10:57:19;101589.72;;;17.07;27.44
70468;BME280;57934;51.532;7.684;2023-04-04T11:00:05;101587.28;;;16.44;27.21
70468;BME280;57934;51.532;7.684;2023-04-04T11:02:55;101593.56;;;15.32;28.66
70468;BME280;57934;51.532;7.684;2023-04-04T11:05:25;101589.31;;;14.88;29.40
70468;BME280;57934;51.532;7.684;2023-04-04T11:07:56;101591.63;;;15.47;29.27
70468;BME280;57934;51.532;7.684;2023-04-04T11:10:24;101584.94;;;18.47;26.23
70468;BME280;57934;51.532;7.684;2023-04-04T11:12:53;101581.19;;;18.93;26.33
70468;BME280;57934;51.532;7.684;2023-04-04T11:15:21;101577.94;;;18.84;24.80
70468;BME280;57934;51.532;7.684;2023-04-04T11:17:52;101572.06;;;17.52;26.38
70468;BME280;57934;51.532;7.684;2023-04-04T11:20:27;101580.66;;;17.81;26.35
70468;BME280;57934;51.532;7.684;2023-04-04T11:23:14;101571.31;;;18.55;25.46
70468;BME280;57934;51.532;7.684;2023-04-04T11:25:42;101565.97;;;19.62;24.26
70468;BME280;57934;51.532;7.684;2023-04-04T11:34:08;101563.75;;;16.48;26.83
70468;BME280;57934;51.532;7.684;2023-04-04T11:39:20;101557.63;;;19.08;25.08
70468;BME280;57934;51.532;7.684;2023-04-04T11:41:55;101555.38;;;18.42;25.32
70468;BME280;57934;51.532;7.684;2023-04-04T11:44:26;101547.19;;;17.72;26.14
70468;BME280;57934;51.532;7.684;2023-04-04T11:49:29;101540.44;;;20.93;23.28
70468;BME280;57934;51.532;7.684;2023-04-04T11:51:57;101547.09;;;20.60;23.07
70468;BME280;57934;51.532;7.684;2023-04-04T11:54:25;101542.69;;;21.43;22.04
70468;BME280;57934;51.532;7.684;2023-04-04T11:56:51;101542.50;;;20.67;22.22
70468;BME280;57934;51.532;7.684;2023-04-04T11:59:19;101550.09;;;18.98;24.27
70468;BME280;57934;51.532;7.684;2023-04-04T12:01:46;101552.53;;;20.23;23.16
70468;BME280;57934;51.532;7.684;2023-04-04T12:04:19;101540.88;;;20.90;22.45
70468;BME280;57934;51.532;7.684;2023-04-04T12:06:50;101525.25;;;21.81;21.51
70468;BME280;57934;51.532;7.684;2023-04-04T12:09:17;101536.53;;;20.65;22.73
70468;BME280;57934;51.532;7.684;2023-04-04T12:11:46;101543.25;;;19.52;24.02
70468;BME280;57934;51.532;7.684;2023-04-04T12:14:17;101532.16;;;15.48;27.43
70468;BME280;57934;51.532;7.684;2023-04-04T12:16:46;101529.09;;;13.42;30.87
70468;BME280;57934;51.532;7.684;2023-04-04T19:05:47;101246.88;;;5.08;nan
70468;BME280;57934;51.532;7.684;2023-04-04T19:08:17;101246.31;;;5.04;nan
70468;BME280;57934;51.532;7.684;2023-04-04T19:10:48;101248.50;;;4.99;nan
70468;BME280;57934;51.532;7.684;2023-04-04T19:13:16;101251.81;;;5.01;nan
70468;BME280;57934;51.532;7.684;2023-04-04T19:15:42;101249.28;;;4.90;nan
70468;BME280;57934;51.532;7.684;2023-04-04T19:18:09;101253.44;;;4.92;nan
70468;BME280;57934;51.532;7.684;2023-04-04T19:20:36;101252.63;;;4.92;nan
70468;BME280;57934;51.532;7.684;2023-04-04T19:23:02;101252.16;;;4.87;nan
70468;BME280;57934;51.532;7.684;2023-04-04T19:25:28;101255.59;;;4.87;nan
70468;BME280;57934;51.532;7.684;2023-04-04T19:27:55;101250.94;;;4.91;nan
70468;BME280;57934;51.532;7.684;2023-04-04T19:30:43;101252.63;;;4.92;nan
70468;BME280;57934;51.532;7.684;2023-04-04T19:33:11;101256.72;;;4.94;nan
70468;BME280;57934;51.532;7.684;2023-04-04T19:35:58;101254.69;;;4.98;nan
70468;BME280;57934;51.532;7.684;2023-04-04T19:38:31;101254.13;;;4.94;nan
70468;BME280;57934;51.532;7.684;2023-04-04T19:41:02;101255.09;;;4.93;nan
70468;BME280;57934;51.532;7.684;2023-04-04T19:43:32;101258.66;;;4.92;nan
70468;BME280;57934;51.532;7.684;2023-04-04T19:46:05;101268.00;;;4.95;nan
70468;BME280;57934;51.532;7.684;2023-04-04T19:48:47;101260.47;;;4.92;nan
70468;BME280;57934;51.532;7.684;2023-04-04T19:53:44;101261.03;;;4.95;nan
70468;BME280;57934;51.532;7.684;2023-04-04T19:56:13;101260.06;;;4.96;nan
70468;BME280;57934;51.532;7.684;2023-04-04T19:58:39;101266.25;;;4.95;nan
70468;BME280;57934;51.532;7.684;2023-04-04T20:01:08;101256.47;;;4.97;nan
70468;BME280;57934;51.532;7.684;2023-04-04T20:03:37;101257.19;;;4.99;nan
70468;BME280;57934;51.532;7.684;2023-04-04T20:08:43;101259.22;;;4.96;nan
70468;BME280;57934;51.532;7.684;2023-04-04T20:11:12;101262.78;;;4.95;nan
70468;BME280;57934;51.532;7.684;2023-04-04T20:13:39;101254.66;;;4.88;nan
70468;BME280;57934;51.532;7.684;2023-04-04T20:16:08;101259.19;;;4.86;nan
70468;BME280;57934;51.532;7.684;2023-04-04T20:18:36;101258.88;;;4.79;nan
70468;BME280;57934;51.532;7.684;2023-04-04T20:21:13;101250.38;;;4.77;nan